sensor_id;sensor_type;location;lat;lon;timestamp;P1;durP1;ratioP1;P2;durP2;ratioP2
20478;SDS011;10398;52.490;13.434;2023-01-08T00:02:16;7.40;;;3.20;;
20478;SDS011;10398;52.490;13.434;2023-01-08T00:04:42;7.03;;;3.13;;
20478;SDS011;10398;52.490;13.434;2023-01-08T00:07:08;5.37;;;2.67;;
20478;SDS011;10398;52.490;13.434;2023-01-08T00:09:33;4.87;;;2.77;;
20478;SDS011;10398;52.490;13.434;2023-01-08T00:11:59;4.90;;;2.63;;
20478;SDS011;10398;52.490;13.434;2023-01-08T00:14:25;8.97;;;3.27;;
20478;SDS011;10398;52.490;13.434;2023-01-08T00:16:51;6.40;;;3.57;;
20478;SDS011;10398;52.490;13.434;2023-01-08T00:19:16;5.30;;;2.67;;
20478;SDS011;10398;52.490;13.434;2023-01-08T00:21:42;6.33;;;3.07;;
20478;SDS011;10398;52.490;13.434;2023-01-08T00:24:08;4.30;;;2.50;;
20478;SDS011;10398;52.490;13.434;2023-01-08T00:26:33;5.40;;;2.90;;
20478;SDS011;10398;52.490;13.434;2023-01-08T00:28:59;7.23;;;3.43;;
20478;SDS011;10398;52.490;13.434;2023-01-08T00:31:25;5.53;;;2.83;;
20478;SDS011;10398;52.490;13.434;2023-01-08T00:33:50;5.13;;;3.00;;
20478;SDS011;10398;52.490;13.434;2023-01-08T00:36:16;6.20;;;3.47;;
20478;SDS011;10398;52.490;13.434;2023-01-08T00:38:43;4.43;;;2.60;;
20478;SDS011;10398;52.490;13.434;2023-01-08T00:41:10;8.90;;;3.00;;
20478;SDS011;10398;52.490;13.434;2023-01-08T00:43:38;5.40;;;2.83;;
20478;SDS011;10398;52.490;13.434;2023-01-08T00:46:04;5.27;;;2.60;;
20478;SDS011;10398;52.490;13.434;2023-01-08T00:48:30;5.90;;;2.67;;
20478;SDS011;10398;52.490;13.434;2023-01-08T00:51:00;4.03;;;2.43;;
20478;SDS011;10398;52.490;13.434;2023-01-08T00:53:27;5.93;;;2.87;;
20478;SDS011;10398;52.490;13.434;2023-01-08T00:56:02;9.00;;;3.97;;
20478;SDS011;10398;52.490;13.434;2023-01-08T00:58:30;4.93;;;2.53;;
20478;SDS011;10398;52.490;13.434;2023-01-08T01:00:56;5.83;;;2.80;;
20478;SDS011;10398;52.490;13.434;2023-01-08T01:03:22;5.83;;;2.93;;
20478;SDS011;10398;52.490;13.434;2023-01-08T01:05:48;5.93;;;3.00;;
20478;SDS011;10398;52.490;13.434;2023-01-08T01:08:14;6.90;;;3.23;;
20478;SDS011;10398;52.490;13.434;2023-01-08T01:10:40;7.80;;;3.03;;
20478;SDS011;10398;52.490;13.434;2023-01-08T01:13:06;9.63;;;3.33;;
20478;SDS011;10398;52.490;13.434;2023-01-08T01:15:32;5.03;;;2.73;;
20478;SDS011;10398;52.490;13.434;2023-01-08T01:17:57;5.27;;;2.80;;
20478;SDS011;10398;52.490;13.434;2023-01-08T01:20:23;9.00;;;3.30;;
20478;SDS011;10398;52.490;13.434;2023-01-08T01:22:49;6.33;;;2.70;;
20478;SDS011;10398;52.490;13.434;2023-01-08T01:25:14;5.87;;;2.80;;
20478;SDS011;10398;52.490;13.434;2023-01-08T01:27:40;5.83;;;3.10;;
20478;SDS011;10398;52.490;13.434;2023-01-08T01:30:06;7.40;;;2.77;;
20478;SDS011;10398;52.490;13.434;2023-01-08T01:32:32;8.93;;;3.13;;
20478;SDS011;10398;52.490;13.434;2023-01-08T01:34:58;7.17;;;3.17;;
20478;SDS011;10398;52.490;13.434;2023-01-08T01:37:24;4.30;;;2.83;;
20478;SDS011;10398;52.490;13.434;2023-01-08T01:39:50;7.37;;;2.93;;
20478;SDS011;10398;52.490;13.434;2023-01-08T01:42:16;7.53;;;3.00;;
20478;SDS011;10398;52.490;13.434;2023-01-08T01:45:02;5.77;;;2.67;;
20478;SDS011;10398;52.490;13.434;2023-01-08T01:47:37;7.60;;;3.27;;
20478;SDS011;10398;52.490;13.434;2023-01-08T01:50:12;7.57;;;3.27;;
20478;SDS011;10398;52.490;13.434;2023-01-08T01:55:19;5.83;;;3.00;;
20478;SDS011;10398;52.490;13.434;2023-01-08T01:57:49;4.50;;;2.77;;
20478;SDS011;10398;52.490;13.434;2023-01-08T02:00:21;5.77;;;3.10;;
20478;SDS011;10398;52.490;13.434;2023-01-08T02:02:48;6.53;;;3.13;;
20478;SDS011;10398;52.490;13.434;2023-01-08T02:05:15;4.77;;;2.67;;
20478;SDS011;10398;52.490;13.434;2023-01-08T02:07:57;7.07;;;3.00;;
20478;SDS011;10398;52.490;13.434;2023-01-08T02:10:36;6.90;;;3.10;;
20478;SDS011;10398;52.490;13.434;2023-01-08T02:13:14;6.10;;;3.10;;
20478;SDS011;10398;52.490;13.434;2023-01-08T02:15:54;7.37;;;3.37;;
20478;SDS011;10398;52.490;13.434;2023-01-08T02:21:06;6.70;;;2.90;;
20478;SDS011;10398;52.490;13.434;2023-01-08T02:23:44;7.63;;;3.77;;
20478;SDS011;10398;52.490;13.434;2023-01-08T02:26:25;7.37;;;3.20;;
20478;SDS011;10398;52.490;13.434;2023-01-08T02:29:10;6.33;;;3.30;;
20478;SDS011;10398;52.490;13.434;2023-01-08T02:31:44;5.33;;;3.20;;
20478;SDS011;10398;52.490;13.434;2023-01-08T02:34:10;7.03;;;3.70;;
20478;SDS011;10398;52.490;13.434;2023-01-08T02:36:43;6.93;;;3.30;;
20478;SDS011;10398;52.490;13.434;2023-01-08T02:50:14;5.83;;;3.03;;
20478;SDS011;10398;52.490;13.434;2023-01-08T02:52:49;7.47;;;3.40;;
20478;SDS011;10398;52.490;13.434;2023-01-08T02:55:24;7.77;;;3.23;;
20478;SDS011;10398;52.490;13.434;2023-01-08T02:57:52;5.90;;;3.03;;
20478;SDS011;10398;52.490;13.434;2023-01-08T03:00:18;6.20;;;3.70;;
20478;SDS011;10398;52.490;13.434;2023-01-08T03:02:45;6.83;;;3.47;;
20478;SDS011;10398;52.490;13.434;2023-01-08T03:05:26;6.00;;;3.60;;
20478;SDS011;10398;52.490;13.434;2023-01-08T03:07:53;6.53;;;3.40;;
20478;SDS011;10398;52.490;13.434;2023-01-08T03:10:20;6.63;;;3.43;;
20478;SDS011;10398;52.490;13.434;2023-01-08T03:12:56;6.77;;;3.67;;
20478;SDS011;10398;52.490;13.434;2023-01-08T03:15:35;7.03;;;3.23;;
20478;SDS011;10398;52.490;13.434;2023-01-08T03:18:08;7.37;;;3.50;;
20478;SDS011;10398;52.490;13.434;2023-01-08T03:20:37;6.57;;;3.57;;
20478;SDS011;10398;52.490;13.434;2023-01-08T03:23:04;5.80;;;3.30;;
20478;SDS011;10398;52.490;13.434;2023-01-08T03:25:33;8.60;;;3.83;;
20478;SDS011;10398;52.490;13.434;2023-01-08T03:28:04;9.27;;;3.50;;
20478;SDS011;10398;52.490;13.434;2023-01-08T03:30:35;6.13;;;3.20;;
20478;SDS011;10398;52.490;13.434;2023-01-08T03:33:05;7.03;;;3.60;;
20478;SDS011;10398;52.490;13.434;2023-01-08T03:35:33;7.90;;;3.70;;
20478;SDS011;10398;52.490;13.434;2023-01-08T03:38:03;9.33;;;4.00;;
20478;SDS011;10398;52.490;13.434;2023-01-08T03:40:38;7.53;;;3.80;;
20478;SDS011;10398;52.490;13.434;2023-01-08T03:43:08;7.60;;;3.67;;
20478;SDS011;10398;52.490;13.434;2023-01-08T03:45:34;9.40;;;3.50;;
20478;SDS011;10398;52.490;13.434;2023-01-08T03:48:02;9.17;;;4.20;;
20478;SDS011;10398;52.490;13.434;2023-01-08T03:50:29;7.50;;;3.50;;
20478;SDS011;10398;52.490;13.434;2023-01-08T03:52:56;6.37;;;3.50;;
20478;SDS011;10398;52.490;13.434;2023-01-08T03:55:22;10.97;;;4.27;;
20478;SDS011;10398;52.490;13.434;2023-01-08T03:57:48;6.93;;;3.30;;
20478;SDS011;10398;52.490;13.434;2023-01-08T04:00:13;8.03;;;3.57;;
20478;SDS011;10398;52.490;13.434;2023-01-08T04:02:39;6.90;;;3.77;;
20478;SDS011;10398;52.490;13.434;2023-01-08T04:05:08;5.60;;;3.50;;
20478;SDS011;10398;52.490;13.434;2023-01-08T04:07:34;7.13;;;3.23;;
20478;SDS011;10398;52.490;13.434;2023-01-08T04:10:00;5.40;;;3.50;;
20478;SDS011;10398;52.490;13.434;2023-01-08T04:12:26;8.37;;;3.90;;
20478;SDS011;10398;52.490;13.434;2023-01-08T04:14:51;8.63;;;3.63;;
20478;SDS011;10398;52.490;13.434;2023-01-08T04:17:17;7.63;;;3.97;;
20478;SDS011;10398;52.490;13.434;2023-01-08T04:19:43;7.10;;;3.90;;
20478;SDS011;10398;52.490;13.434;2023-01-08T04:22:09;7.60;;;4.00;;
20478;SDS011;10398;52.490;13.434;2023-01-08T04:24:35;7.60;;;4.23;;
20478;SDS011;10398;52.490;13.434;2023-01-08T04:27:01;9.63;;;4.00;;
20478;SDS011;10398;52.490;13.434;2023-01-08T04:29:26;6.80;;;3.77;;
20478;SDS011;10398;52.490;13.434;2023-01-08T04:31:52;8.23;;;3.97;;
20478;SDS011;10398;52.490;13.434;2023-01-08T04:34:18;7.67;;;4.13;;
20478;SDS011;10398;52.490;13.434;2023-01-08T04:36:43;7.00;;;3.87;;
20478;SDS011;10398;52.490;13.434;2023-01-08T04:39:09;8.50;;;3.93;;
20478;SDS011;10398;52.490;13.434;2023-01-08T04:41:35;7.17;;;3.80;;
20478;SDS011;10398;52.490;13.434;2023-01-08T04:44:01;6.10;;;4.10;;
20478;SDS011;10398;52.490;13.434;2023-01-08T04:46:27;5.63;;;3.63;;
20478;SDS011;10398;52.490;13.434;2023-01-08T04:48:53;7.43;;;4.40;;
20478;SDS011;10398;52.490;13.434;2023-01-08T04:51:18;7.83;;;3.87;;
20478;SDS011;10398;52.490;13.434;2023-01-08T04:53:45;7.73;;;3.97;;
20478;SDS011;10398;52.490;13.434;2023-01-08T04:56:11;7.53;;;4.07;;
20478;SDS011;10398;52.490;13.434;2023-01-08T04:58:37;8.67;;;3.90;;
20478;SDS011;10398;52.490;13.434;2023-01-08T05:01:14;7.57;;;3.83;;
20478;SDS011;10398;52.490;13.434;2023-01-08T05:03:43;7.33;;;3.83;;
20478;SDS011;10398;52.490;13.434;2023-01-08T05:06:09;7.13;;;3.80;;
20478;SDS011;10398;52.490;13.434;2023-01-08T05:08:35;8.00;;;3.70;;
20478;SDS011;10398;52.490;13.434;2023-01-08T05:11:01;7.33;;;4.00;;
20478;SDS011;10398;52.490;13.434;2023-01-08T05:13:27;13.70;;;4.00;;
20478;SDS011;10398;52.490;13.434;2023-01-08T05:15:53;6.80;;;3.57;;
20478;SDS011;10398;52.490;13.434;2023-01-08T05:18:22;9.97;;;3.77;;
20478;SDS011;10398;52.490;13.434;2023-01-08T05:20:47;7.43;;;3.90;;
20478;SDS011;10398;52.490;13.434;2023-01-08T05:23:13;7.07;;;3.90;;
20478;SDS011;10398;52.490;13.434;2023-01-08T05:25:39;6.00;;;3.33;;
20478;SDS011;10398;52.490;13.434;2023-01-08T05:28:05;10.63;;;3.90;;
20478;SDS011;10398;52.490;13.434;2023-01-08T05:30:30;8.33;;;3.80;;
20478;SDS011;10398;52.490;13.434;2023-01-08T05:32:56;10.00;;;3.93;;
20478;SDS011;10398;52.490;13.434;2023-01-08T05:35:21;7.97;;;3.47;;
20478;SDS011;10398;52.490;13.434;2023-01-08T05:37:47;7.17;;;3.90;;
20478;SDS011;10398;52.490;13.434;2023-01-08T05:40:13;9.20;;;3.97;;
20478;SDS011;10398;52.490;13.434;2023-01-08T05:42:38;7.97;;;3.63;;
20478;SDS011;10398;52.490;13.434;2023-01-08T05:45:04;6.63;;;3.70;;
20478;SDS011;10398;52.490;13.434;2023-01-08T05:47:31;7.60;;;3.80;;
20478;SDS011;10398;52.490;13.434;2023-01-08T05:49:57;7.37;;;3.83;;
20478;SDS011;10398;52.490;13.434;2023-01-08T05:52:23;7.43;;;3.77;;
20478;SDS011;10398;52.490;13.434;2023-01-08T05:54:49;6.27;;;3.70;;
20478;SDS011;10398;52.490;13.434;2023-01-08T05:57:15;5.60;;;3.50;;
20478;SDS011;10398;52.490;13.434;2023-01-08T05:59:40;6.27;;;3.50;;
20478;SDS011;10398;52.490;13.434;2023-01-08T06:02:06;5.80;;;3.33;;
20478;SDS011;10398;52.490;13.434;2023-01-08T06:04:32;6.53;;;3.27;;
20478;SDS011;10398;52.490;13.434;2023-01-08T06:06:58;6.00;;;3.53;;
20478;SDS011;10398;52.490;13.434;2023-01-08T06:09:24;6.00;;;3.57;;
20478;SDS011;10398;52.490;13.434;2023-01-08T06:11:50;7.40;;;3.37;;
20478;SDS011;10398;52.490;13.434;2023-01-08T06:14:17;5.27;;;3.07;;
20478;SDS011;10398;52.490;13.434;2023-01-08T06:16:42;6.00;;;3.27;;
20478;SDS011;10398;52.490;13.434;2023-01-08T06:19:09;7.43;;;3.50;;
20478;SDS011;10398;52.490;13.434;2023-01-08T06:21:35;6.43;;;3.90;;
20478;SDS011;10398;52.490;13.434;2023-01-08T06:24:01;6.97;;;3.40;;
20478;SDS011;10398;52.490;13.434;2023-01-08T06:26:26;6.60;;;3.37;;
20478;SDS011;10398;52.490;13.434;2023-01-08T06:28:52;7.57;;;4.17;;
20478;SDS011;10398;52.490;13.434;2023-01-08T06:31:17;8.00;;;3.67;;
20478;SDS011;10398;52.490;13.434;2023-01-08T06:33:43;5.53;;;2.93;;
20478;SDS011;10398;52.490;13.434;2023-01-08T06:36:09;6.43;;;3.33;;
20478;SDS011;10398;52.490;13.434;2023-01-08T06:38:34;6.43;;;3.50;;
20478;SDS011;10398;52.490;13.434;2023-01-08T06:41:04;6.87;;;3.43;;
20478;SDS011;10398;52.490;13.434;2023-01-08T06:43:32;7.13;;;3.60;;
20478;SDS011;10398;52.490;13.434;2023-01-08T06:45:59;8.10;;;4.27;;
20478;SDS011;10398;52.490;13.434;2023-01-08T06:48:24;6.60;;;3.60;;
20478;SDS011;10398;52.490;13.434;2023-01-08T06:50:50;7.83;;;3.37;;
20478;SDS011;10398;52.490;13.434;2023-01-08T06:53:16;6.77;;;3.53;;
20478;SDS011;10398;52.490;13.434;2023-01-08T06:55:42;5.13;;;2.83;;
20478;SDS011;10398;52.490;13.434;2023-01-08T06:58:08;8.07;;;3.10;;
20478;SDS011;10398;52.490;13.434;2023-01-08T07:00:36;7.03;;;3.60;;
20478;SDS011;10398;52.490;13.434;2023-01-08T07:03:02;7.83;;;3.33;;
20478;SDS011;10398;52.490;13.434;2023-01-08T07:05:28;4.77;;;2.90;;
20478;SDS011;10398;52.490;13.434;2023-01-08T07:07:54;4.23;;;2.80;;
20478;SDS011;10398;52.490;13.434;2023-01-08T07:10:19;5.67;;;3.37;;
20478;SDS011;10398;52.490;13.434;2023-01-08T07:12:46;5.37;;;3.23;;
20478;SDS011;10398;52.490;13.434;2023-01-08T07:15:12;5.70;;;3.10;;
20478;SDS011;10398;52.490;13.434;2023-01-08T07:17:38;5.80;;;3.47;;
20478;SDS011;10398;52.490;13.434;2023-01-08T07:20:03;6.80;;;3.10;;
20478;SDS011;10398;52.490;13.434;2023-01-08T07:22:29;5.90;;;3.13;;
20478;SDS011;10398;52.490;13.434;2023-01-08T07:24:55;7.33;;;3.30;;
20478;SDS011;10398;52.490;13.434;2023-01-08T07:27:21;6.10;;;3.00;;
20478;SDS011;10398;52.490;13.434;2023-01-08T07:29:46;4.60;;;2.93;;
20478;SDS011;10398;52.490;13.434;2023-01-08T07:32:12;5.73;;;2.97;;
20478;SDS011;10398;52.490;13.434;2023-01-08T07:34:37;7.20;;;3.43;;
20478;SDS011;10398;52.490;13.434;2023-01-08T07:37:03;5.97;;;3.70;;
20478;SDS011;10398;52.490;13.434;2023-01-08T07:39:29;8.37;;;4.40;;
20478;SDS011;10398;52.490;13.434;2023-01-08T07:41:55;9.20;;;4.30;;
20478;SDS011;10398;52.490;13.434;2023-01-08T07:44:21;11.53;;;4.73;;
20478;SDS011;10398;52.490;13.434;2023-01-08T07:46:47;12.43;;;5.20;;
20478;SDS011;10398;52.490;13.434;2023-01-08T07:49:12;6.83;;;3.73;;
20478;SDS011;10398;52.490;13.434;2023-01-08T07:51:38;8.73;;;4.47;;
20478;SDS011;10398;52.490;13.434;2023-01-08T07:54:03;13.03;;;4.43;;
20478;SDS011;10398;52.490;13.434;2023-01-08T07:56:29;6.33;;;3.50;;
20478;SDS011;10398;52.490;13.434;2023-01-08T07:58:55;9.00;;;3.87;;
20478;SDS011;10398;52.490;13.434;2023-01-08T08:01:22;6.90;;;3.83;;
20478;SDS011;10398;52.490;13.434;2023-01-08T08:03:48;6.13;;;3.33;;
20478;SDS011;10398;52.490;13.434;2023-01-08T08:06:13;5.77;;;3.23;;
20478;SDS011;10398;52.490;13.434;2023-01-08T08:08:39;4.57;;;2.97;;
20478;SDS011;10398;52.490;13.434;2023-01-08T08:11:05;6.23;;;3.03;;
20478;SDS011;10398;52.490;13.434;2023-01-08T08:13:30;5.50;;;3.10;;
20478;SDS011;10398;52.490;13.434;2023-01-08T08:16:00;5.93;;;3.50;;
20478;SDS011;10398;52.490;13.434;2023-01-08T08:18:27;6.40;;;3.30;;
20478;SDS011;10398;52.490;13.434;2023-01-08T08:20:52;7.40;;;2.90;;
20478;SDS011;10398;52.490;13.434;2023-01-08T08:23:18;5.50;;;3.07;;
20478;SDS011;10398;52.490;13.434;2023-01-08T08:25:43;8.40;;;3.03;;
20478;SDS011;10398;52.490;13.434;2023-01-08T08:28:10;8.53;;;3.37;;
20478;SDS011;10398;52.490;13.434;2023-01-08T08:30:36;5.40;;;2.97;;
20478;SDS011;10398;52.490;13.434;2023-01-08T08:33:03;5.83;;;3.23;;
20478;SDS011;10398;52.490;13.434;2023-01-08T08:35:30;7.57;;;3.60;;
20478;SDS011;10398;52.490;13.434;2023-01-08T08:37:56;5.90;;;2.87;;
20478;SDS011;10398;52.490;13.434;2023-01-08T08:40:22;5.80;;;3.30;;
20478;SDS011;10398;52.490;13.434;2023-01-08T08:42:53;5.87;;;3.30;;
20478;SDS011;10398;52.490;13.434;2023-01-08T08:45:20;6.80;;;3.00;;
20478;SDS011;10398;52.490;13.434;2023-01-08T08:47:46;7.10;;;3.50;;
20478;SDS011;10398;52.490;13.434;2023-01-08T08:50:11;6.77;;;2.93;;
20478;SDS011;10398;52.490;13.434;2023-01-08T08:52:37;4.77;;;3.00;;
20478;SDS011;10398;52.490;13.434;2023-01-08T08:55:03;5.33;;;3.37;;
20478;SDS011;10398;52.490;13.434;2023-01-08T08:57:28;6.93;;;3.50;;
20478;SDS011;10398;52.490;13.434;2023-01-08T08:59:54;5.17;;;2.97;;
20478;SDS011;10398;52.490;13.434;2023-01-08T09:02:20;7.60;;;3.43;;
20478;SDS011;10398;52.490;13.434;2023-01-08T09:04:45;4.83;;;3.00;;
20478;SDS011;10398;52.490;13.434;2023-01-08T09:07:11;5.60;;;2.87;;
20478;SDS011;10398;52.490;13.434;2023-01-08T09:09:36;4.53;;;2.67;;
20478;SDS011;10398;52.490;13.434;2023-01-08T09:12:02;5.63;;;3.20;;
20478;SDS011;10398;52.490;13.434;2023-01-08T09:14:29;6.43;;;2.90;;
20478;SDS011;10398;52.490;13.434;2023-01-08T09:16:54;5.17;;;3.00;;
20478;SDS011;10398;52.490;13.434;2023-01-08T09:19:20;7.63;;;3.10;;
20478;SDS011;10398;52.490;13.434;2023-01-08T09:21:46;4.73;;;2.57;;
20478;SDS011;10398;52.490;13.434;2023-01-08T09:24:13;7.53;;;3.47;;
20478;SDS011;10398;52.490;13.434;2023-01-08T09:26:38;4.17;;;2.63;;
20478;SDS011;10398;52.490;13.434;2023-01-08T09:29:04;6.80;;;3.37;;
20478;SDS011;10398;52.490;13.434;2023-01-08T09:31:30;6.03;;;2.80;;
20478;SDS011;10398;52.490;13.434;2023-01-08T09:33:55;5.03;;;2.63;;
20478;SDS011;10398;52.490;13.434;2023-01-08T09:36:21;4.67;;;2.77;;
20478;SDS011;10398;52.490;13.434;2023-01-08T09:38:46;5.87;;;2.60;;
20478;SDS011;10398;52.490;13.434;2023-01-08T09:41:21;5.83;;;3.00;;
20478;SDS011;10398;52.490;13.434;2023-01-08T09:43:53;5.60;;;2.40;;
20478;SDS011;10398;52.490;13.434;2023-01-08T09:46:24;6.07;;;2.77;;
20478;SDS011;10398;52.490;13.434;2023-01-08T09:48:51;4.93;;;3.00;;
20478;SDS011;10398;52.490;13.434;2023-01-08T09:51:19;5.30;;;2.83;;
20478;SDS011;10398;52.490;13.434;2023-01-08T09:53:47;7.00;;;3.20;;
20478;SDS011;10398;52.490;13.434;2023-01-08T09:56:19;5.37;;;3.00;;
20478;SDS011;10398;52.490;13.434;2023-01-08T10:01:14;7.40;;;3.10;;
20478;SDS011;10398;52.490;13.434;2023-01-08T10:03:44;8.87;;;3.53;;
20478;SDS011;10398;52.490;13.434;2023-01-08T10:06:15;6.97;;;3.07;;
20478;SDS011;10398;52.490;13.434;2023-01-08T10:08:41;6.37;;;2.90;;
20478;SDS011;10398;52.490;13.434;2023-01-08T10:11:07;5.77;;;3.00;;
20478;SDS011;10398;52.490;13.434;2023-01-08T10:13:36;5.67;;;3.03;;
20478;SDS011;10398;52.490;13.434;2023-01-08T10:16:05;8.93;;;3.57;;
20478;SDS011;10398;52.490;13.434;2023-01-08T10:18:33;8.37;;;3.47;;
20478;SDS011;10398;52.490;13.434;2023-01-08T10:20:59;10.47;;;3.50;;
20478;SDS011;10398;52.490;13.434;2023-01-08T10:23:25;9.53;;;3.97;;
20478;SDS011;10398;52.490;13.434;2023-01-08T10:25:58;5.70;;;2.93;;
20478;SDS011;10398;52.490;13.434;2023-01-08T10:28:26;6.50;;;3.70;;
20478;SDS011;10398;52.490;13.434;2023-01-08T10:30:57;9.60;;;3.40;;
20478;SDS011;10398;52.490;13.434;2023-01-08T10:33:29;7.10;;;3.77;;
20478;SDS011;10398;52.490;13.434;2023-01-08T10:36:06;11.27;;;4.10;;
20478;SDS011;10398;52.490;13.434;2023-01-08T10:38:35;8.73;;;3.60;;
20478;SDS011;10398;52.490;13.434;2023-01-08T10:41:08;11.97;;;4.73;;
20478;SDS011;10398;52.490;13.434;2023-01-08T10:43:36;6.53;;;3.80;;
20478;SDS011;10398;52.490;13.434;2023-01-08T10:46:16;7.27;;;3.20;;
20478;SDS011;10398;52.490;13.434;2023-01-08T10:48:56;5.77;;;2.50;;
20478;SDS011;10398;52.490;13.434;2023-01-08T10:51:25;4.67;;;2.60;;
20478;SDS011;10398;52.490;13.434;2023-01-08T10:53:56;10.57;;;3.10;;
20478;SDS011;10398;52.490;13.434;2023-01-08T10:56:26;6.67;;;3.37;;
20478;SDS011;10398;52.490;13.434;2023-01-08T10:58:53;6.80;;;2.93;;
20478;SDS011;10398;52.490;13.434;2023-01-08T11:01:29;10.87;;;3.80;;
20478;SDS011;10398;52.490;13.434;2023-01-08T11:03:57;8.13;;;3.17;;
20478;SDS011;10398;52.490;13.434;2023-01-08T11:06:25;9.37;;;3.73;;
20478;SDS011;10398;52.490;13.434;2023-01-08T11:08:59;6.73;;;2.87;;
20478;SDS011;10398;52.490;13.434;2023-01-08T11:11:33;6.77;;;3.33;;
20478;SDS011;10398;52.490;13.434;2023-01-08T11:14:04;9.00;;;3.43;;
20478;SDS011;10398;52.490;13.434;2023-01-08T11:16:38;6.87;;;3.40;;
20478;SDS011;10398;52.490;13.434;2023-01-08T11:19:14;8.03;;;3.53;;
20478;SDS011;10398;52.490;13.434;2023-01-08T11:21:41;8.97;;;4.20;;
20478;SDS011;10398;52.490;13.434;2023-01-08T11:24:18;6.77;;;3.37;;
20478;SDS011;10398;52.490;13.434;2023-01-08T11:39:38;9.67;;;3.50;;
20478;SDS011;10398;52.490;13.434;2023-01-08T11:50:48;8.37;;;3.33;;
20478;SDS011;10398;52.490;13.434;2023-01-08T11:53:35;6.87;;;3.90;;
20478;SDS011;10398;52.490;13.434;2023-01-08T12:01:32;5.33;;;3.23;;
20478;SDS011;10398;52.490;13.434;2023-01-08T12:06:54;8.67;;;3.83;;
20478;SDS011;10398;52.490;13.434;2023-01-08T12:09:41;7.93;;;4.10;;
20478;SDS011;10398;52.490;13.434;2023-01-08T12:15:00;7.67;;;3.90;;
20478;SDS011;10398;52.490;13.434;2023-01-08T12:26:17;6.93;;;3.60;;
20478;SDS011;10398;52.490;13.434;2023-01-08T12:32:01;7.93;;;3.53;;
20478;SDS011;10398;52.490;13.434;2023-01-08T12:37:38;9.93;;;4.90;;
20478;SDS011;10398;52.490;13.434;2023-01-08T12:40:23;10.57;;;4.90;;
20478;SDS011;10398;52.490;13.434;2023-01-08T12:42:49;8.40;;;3.60;;
20478;SDS011;10398;52.490;13.434;2023-01-08T12:45:35;8.17;;;3.90;;
20478;SDS011;10398;52.490;13.434;2023-01-08T12:48:06;9.07;;;4.40;;
20478;SDS011;10398;52.490;13.434;2023-01-08T12:55:57;7.97;;;4.40;;
20478;SDS011;10398;52.490;13.434;2023-01-08T13:01:23;12.10;;;5.10;;
20478;SDS011;10398;52.490;13.434;2023-01-08T13:03:50;12.23;;;4.90;;
20478;SDS011;10398;52.490;13.434;2023-01-08T13:06:17;12.83;;;5.30;;
20478;SDS011;10398;52.490;13.434;2023-01-08T13:08:48;8.33;;;4.03;;
20478;SDS011;10398;52.490;13.434;2023-01-08T13:11:50;11.87;;;4.50;;
20478;SDS011;10398;52.490;13.434;2023-01-08T13:14:14;8.40;;;4.47;;
20478;SDS011;10398;52.490;13.434;2023-01-08T13:16:43;13.93;;;5.63;;
20478;SDS011;10398;52.490;13.434;2023-01-08T13:19:26;8.83;;;4.37;;
20478;SDS011;10398;52.490;13.434;2023-01-08T13:21:58;8.33;;;3.90;;
20478;SDS011;10398;52.490;13.434;2023-01-08T13:24:28;5.93;;;3.53;;
20478;SDS011;10398;52.490;13.434;2023-01-08T13:27:24;8.23;;;4.03;;
20478;SDS011;10398;52.490;13.434;2023-01-08T13:29:52;11.20;;;3.67;;
20478;SDS011;10398;52.490;13.434;2023-01-08T13:35:25;7.60;;;3.90;;
20478;SDS011;10398;52.490;13.434;2023-01-08T13:38:15;8.83;;;3.90;;
20478;SDS011;10398;52.490;13.434;2023-01-08T13:43:28;13.27;;;5.00;;
20478;SDS011;10398;52.490;13.434;2023-01-08T13:48:28;8.03;;;4.37;;
20478;SDS011;10398;52.490;13.434;2023-01-08T13:50:57;7.60;;;4.40;;
20478;SDS011;10398;52.490;13.434;2023-01-08T13:53:23;11.77;;;5.93;;
20478;SDS011;10398;52.490;13.434;2023-01-08T13:55:56;11.13;;;5.70;;
20478;SDS011;10398;52.490;13.434;2023-01-08T13:58:29;9.07;;;4.93;;
20478;SDS011;10398;52.490;13.434;2023-01-08T14:00:59;8.03;;;4.30;;
20478;SDS011;10398;52.490;13.434;2023-01-08T14:08:31;11.50;;;4.73;;
20478;SDS011;10398;52.490;13.434;2023-01-08T14:10:57;11.00;;;6.07;;
20478;SDS011;10398;52.490;13.434;2023-01-08T14:13:27;10.13;;;5.17;;
20478;SDS011;10398;52.490;13.434;2023-01-08T14:15:56;8.73;;;4.83;;
20478;SDS011;10398;52.490;13.434;2023-01-08T14:18:26;12.67;;;5.67;;
20478;SDS011;10398;52.490;13.434;2023-01-08T14:20:52;10.17;;;5.13;;
20478;SDS011;10398;52.490;13.434;2023-01-08T14:23:29;9.63;;;4.87;;
20478;SDS011;10398;52.490;13.434;2023-01-08T14:26:01;9.27;;;4.03;;
20478;SDS011;10398;52.490;13.434;2023-01-08T14:28:30;10.93;;;4.33;;
20478;SDS011;10398;52.490;13.434;2023-01-08T14:30:56;10.83;;;5.57;;
20478;SDS011;10398;52.490;13.434;2023-01-08T14:33:23;8.87;;;4.13;;
20478;SDS011;10398;52.490;13.434;2023-01-08T14:35:58;10.53;;;4.30;;
20478;SDS011;10398;52.490;13.434;2023-01-08T14:38:25;9.07;;;3.73;;
20478;SDS011;10398;52.490;13.434;2023-01-08T14:40:58;8.57;;;4.63;;
20478;SDS011;10398;52.490;13.434;2023-01-08T14:43:39;8.87;;;4.10;;
20478;SDS011;10398;52.490;13.434;2023-01-08T14:46:18;10.40;;;4.47;;
20478;SDS011;10398;52.490;13.434;2023-01-08T14:48:46;8.87;;;4.47;;
20478;SDS011;10398;52.490;13.434;2023-01-08T14:51:14;10.27;;;4.60;;
20478;SDS011;10398;52.490;13.434;2023-01-08T14:56:17;11.13;;;4.50;;
20478;SDS011;10398;52.490;13.434;2023-01-08T14:58:46;10.80;;;5.07;;
20478;SDS011;10398;52.490;13.434;2023-01-08T15:01:16;12.63;;;5.20;;
20478;SDS011;10398;52.490;13.434;2023-01-08T15:04:06;9.93;;;4.90;;
20478;SDS011;10398;52.490;13.434;2023-01-08T15:06:38;12.13;;;4.93;;
20478;SDS011;10398;52.490;13.434;2023-01-08T15:09:53;10.87;;;5.47;;
20478;SDS011;10398;52.490;13.434;2023-01-08T15:11:52;11.13;;;5.53;;
20478;SDS011;10398;52.490;13.434;2023-01-08T15:14:23;9.67;;;5.07;;
20478;SDS011;10398;52.490;13.434;2023-01-08T15:16:51;9.10;;;4.83;;
20478;SDS011;10398;52.490;13.434;2023-01-08T15:19:22;10.20;;;5.37;;
20478;SDS011;10398;52.490;13.434;2023-01-08T15:21:57;12.47;;;5.50;;
20478;SDS011;10398;52.490;13.434;2023-01-08T15:26:56;10.50;;;5.07;;
20478;SDS011;10398;52.490;13.434;2023-01-08T15:29:25;12.53;;;5.43;;
20478;SDS011;10398;52.490;13.434;2023-01-08T15:34:40;11.40;;;5.03;;
20478;SDS011;10398;52.490;13.434;2023-01-08T15:37:07;10.67;;;5.10;;
20478;SDS011;10398;52.490;13.434;2023-01-08T15:39:34;11.70;;;5.33;;
20478;SDS011;10398;52.490;13.434;2023-01-08T15:42:00;11.40;;;5.23;;
20478;SDS011;10398;52.490;13.434;2023-01-08T15:44:52;13.13;;;5.57;;
20478;SDS011;10398;52.490;13.434;2023-01-08T15:47:18;14.10;;;5.60;;
20478;SDS011;10398;52.490;13.434;2023-01-08T15:49:43;10.97;;;5.47;;
20478;SDS011;10398;52.490;13.434;2023-01-08T15:52:09;13.90;;;5.87;;
20478;SDS011;10398;52.490;13.434;2023-01-08T15:54:35;10.77;;;5.47;;
20478;SDS011;10398;52.490;13.434;2023-01-08T15:57:02;15.23;;;5.77;;
20478;SDS011;10398;52.490;13.434;2023-01-08T15:59:27;13.73;;;6.70;;
20478;SDS011;10398;52.490;13.434;2023-01-08T16:01:54;14.70;;;5.90;;
20478;SDS011;10398;52.490;13.434;2023-01-08T16:04:19;14.90;;;6.10;;
20478;SDS011;10398;52.490;13.434;2023-01-08T16:06:45;13.10;;;6.03;;
20478;SDS011;10398;52.490;13.434;2023-01-08T16:09:10;13.40;;;5.50;;
20478;SDS011;10398;52.490;13.434;2023-01-08T16:11:36;11.90;;;5.37;;
20478;SDS011;10398;52.490;13.434;2023-01-08T16:14:02;10.00;;;5.07;;
20478;SDS011;10398;52.490;13.434;2023-01-08T16:16:27;14.30;;;6.03;;
20478;SDS011;10398;52.490;13.434;2023-01-08T16:18:53;13.17;;;5.90;;